Terminal Aerodrome Forecast
Issued by NWS

Home | Current Version | Previous Version | Text Only | Print | Product List | Glossary On
Versions: 1 2 3 4 5 6 7 8 9 10 11 12 13 14 15 16 17 18 19 20 21
000
FTUS41 KPBZ 261800 AAA
TAFBVI
TAF AMD
KBVI 261851Z 2619/2718 36004KT 2SM -SN OVC003
     FM262000 VRB03KT 4SM -SN OVC015
     FM262100 33003KT P6SM OVC010
     FM270100 33003KT P6SM OVC015
     FM270900 VRB03KT 5SM BR OVC015
     FM271600 31007KT 5SM BR OVC020
     FM271700 30008KT P6SM OVC025 PROB30 2717/2718 4SM -SN OVC025=

USA.gov is the U.S. government's official web portal to all federal, state and local government web resources and services.